Aeroporto :
LOGIN :

Iscrizione | Disclaimer

   EN    FR    IT 

 










Sommario :    VFR   VFR Marginale   IFR   IFR Intensivo   IFR Molto Intensivo
Visibilità : 
Base nubi : 
>= 8 km
>= 3000ft
5 / 8 km
1000 / 3000 ft
1500m / 5 km
500 / 1000 ft
800 / 1500m
200 / 500 ft
< 800m
< 200 ft
Simboli :   Temporali  Nebbia  Neve Forte  Precipitazioni Forti  Vento > 20 kt
SIGMETs :   Varie  Temporali  Ghiacco  Turbolenza  Onda orograficha  Ceneri Vulcaniche







- Altitudine del aeroporto : 362 ft
- Codice IATA : WAW


EPWA - Warsaw Okecie

ULTIMO METAR :
  • 160830Z 22004KT 180V250 1000 R33/1200N BR BKN002 02/02 Q1029 TEMPO 0800 FG

METARs OBSOLETI :
  • 160800Z 26004KT 230V300 1100 R33/1600U BR BKN002 01/01 Q1029 TEMPO 0800 FG
  • 160730Z 21004KT 0700 R33/0900 FG VV002 01/01 Q1029 TEMPO 0600
  • 160700Z 25003KT 210V280 0900 0700NW R33/1200D FG VV002 01/01 Q1029 TEMPO 0800
  • 160630Z 27004KT 230V300 0900 R33/1200D FG OVC002 01/01 Q1029 TEMPO 0600 FG OVC001
  • 160600Z 27004KT 240V300 0900 R33/1100D FG OVC002 01/01 Q1029 TEMPO 0600 FG

TAF TAF EPWA
Valido dal 16 a 09 ore il 17 a 09 ore UTC


160830Z 1609/1709 24006KT 0900 FG OVC002
TEMPO 1609/1611 0600 FG BKN001
BECMG 1611/1613 3000 BR BKN005
BECMG 1613/1615 7000 NSC
PROB40 1703/1709 4000 BR BKN004
Nessun NOTAM noto per questo aeroporto.



MetMap, La meteo Aeronautica in un colpo d'occhio ! - Copyright ORBIFLY Dicembre 2007 - Disclaimer

ORBIFLY MET'MAP TEAM :

Programmazione e sviluppo : Alexandra Zaïnal
Concezione e sviluppo : Baudouin d'Aumeries
Co-Programmazione e sviluppo : Marc-Olivier Méhu
Supporto tecnico e logistico : Manuel Goepfert
Aiuto per la traduzione : Arnaldo La Scala

Contatto : metmap@orbifly.com




FONTI E CREDITI :

   NOAA